Terminal Aerodrome Forecast
Issued by NWS

Home | Current Version | Previous Version | Text Only | Print | Product List | Glossary On
Versions: 1 2 3 4 5 6 7 8 9 10 11 12 13 14 15 16 17
448
FTUS45 KTFX 280939 AAD
TAFGTF
TAF AMD
KGTF 280939Z 2810/2906 36008KT P6SM VCSH BKN100
     FM281400 34010KT P6SM VCSH SCT035 BKN060
     FM281800 01010KT P6SM -SHRA VCTS SCT035 BKN060CB=

USA.gov is the U.S. government's official web portal to all federal, state and local government web resources and services.